sensor_id;sensor_type;location;lat;lon;timestamp;temperature;humidity
1179;DHT22;578;48.408;10.004;2024-03-08T00:01:03;1.50;99.90
1179;DHT22;578;48.408;10.004;2024-03-08T00:03:07;1.50;99.90
1179;DHT22;578;48.408;10.004;2024-03-08T00:05:11;1.40;99.90
1179;DHT22;578;48.408;10.004;2024-03-08T00:07:13;1.40;99.90
1179;DHT22;578;48.408;10.004;2024-03-08T00:09:16;1.40;99.90
1179;DHT22;578;48.408;10.004;2024-03-08T00:11:18;1.40;99.90
1179;DHT22;578;48.408;10.004;2024-03-08T00:13:19;1.50;99.90
1179;DHT22;578;48.408;10.004;2024-03-08T00:15:21;1.40;99.90
1179;DHT22;578;48.408;10.004;2024-03-08T00:17:23;1.30;99.90
1179;DHT22;578;48.408;10.004;2024-03-08T00:19:25;1.20;99.90
1179;DHT22;578;48.408;10.004;2024-03-08T00:21:27;1.20;99.90
1179;DHT22;578;48.408;10.004;2024-03-08T00:23:29;1.30;99.90
1179;DHT22;578;48.408;10.004;2024-03-08T00:25:32;1.30;99.90
1179;DHT22;578;48.408;10.004;2024-03-08T00:27:34;1.40;99.90
1179;DHT22;578;48.408;10.004;2024-03-08T00:29:35;1.30;99.90
1179;DHT22;578;48.408;10.004;2024-03-08T00:31:39;1.30;99.90
1179;DHT22;578;48.408;10.004;2024-03-08T00:33:40;1.30;99.90
1179;DHT22;578;48.408;10.004;2024-03-08T00:35:42;1.30;99.90
1179;DHT22;578;48.408;10.004;2024-03-08T00:37:44;1.30;99.90
1179;DHT22;578;48.408;10.004;2024-03-08T00:39:47;1.20;99.90
1179;DHT22;578;48.408;10.004;2024-03-08T00:41:51;1.20;99.90
1179;DHT22;578;48.408;10.004;2024-03-08T00:43:53;1.20;99.90
1179;DHT22;578;48.408;10.004;2024-03-08T00:45:54;1.20;99.90
1179;DHT22;578;48.408;10.004;2024-03-08T00:47:58;1.10;99.90
1179;DHT22;578;48.408;10.004;2024-03-08T00:50:00;1.10;99.90
1179;DHT22;578;48.408;10.004;2024-03-08T00:52:04;1.20;99.90
1179;DHT22;578;48.408;10.004;2024-03-08T00:54:08;1.10;99.90
1179;DHT22;578;48.408;10.004;2024-03-08T00:56:10;1.00;99.90
1179;DHT22;578;48.408;10.004;2024-03-08T00:58:13;1.00;99.90
1179;DHT22;578;48.408;10.004;2024-03-08T01:00:15;1.00;99.90
1179;DHT22;578;48.408;10.004;2024-03-08T01:02:17;0.90;99.90
1179;DHT22;578;48.408;10.004;2024-03-08T01:04:19;1.00;99.90
1179;DHT22;578;48.408;10.004;2024-03-08T01:06:21;1.00;99.90
1179;DHT22;578;48.408;10.004;2024-03-08T01:08:23;0.90;99.90
1179;DHT22;578;48.408;10.004;2024-03-08T01:10:25;0.90;99.90
1179;DHT22;578;48.408;10.004;2024-03-08T01:12:27;1.00;99.90
1179;DHT22;578;48.408;10.004;2024-03-08T01:14:31;1.00;99.90
1179;DHT22;578;48.408;10.004;2024-03-08T01:16:33;1.00;99.90
1179;DHT22;578;48.408;10.004;2024-03-08T01:18:34;1.00;99.90
1179;DHT22;578;48.408;10.004;2024-03-08T01:20:36;1.00;99.90
1179;DHT22;578;48.408;10.004;2024-03-08T01:22:37;0.90;99.90
1179;DHT22;578;48.408;10.004;2024-03-08T01:24:38;0.90;99.90
1179;DHT22;578;48.408;10.004;2024-03-08T01:26:40;0.90;99.90
1179;DHT22;578;48.408;10.004;2024-03-08T01:28:42;0.90;99.90
1179;DHT22;578;48.408;10.004;2024-03-08T01:30:45;0.80;99.90
1179;DHT22;578;48.408;10.004;2024-03-08T01:32:47;0.80;99.90
1179;DHT22;578;48.408;10.004;2024-03-08T01:34:49;0.80;99.90
1179;DHT22;578;48.408;10.004;2024-03-08T01:36:51;0.80;99.90
1179;DHT22;578;48.408;10.004;2024-03-08T01:38:52;0.80;99.90
1179;DHT22;578;48.408;10.004;2024-03-08T01:40:54;0.80;99.90
1179;DHT22;578;48.408;10.004;2024-03-08T01:42:56;0.70;99.90
1179;DHT22;578;48.408;10.004;2024-03-08T01:44:58;0.70;99.90
1179;DHT22;578;48.408;10.004;2024-03-08T01:47:01;0.70;99.90
1179;DHT22;578;48.408;10.004;2024-03-08T01:49:03;0.70;99.90
1179;DHT22;578;48.408;10.004;2024-03-08T01:51:05;0.70;99.90
1179;DHT22;578;48.408;10.004;2024-03-08T01:53:08;0.70;99.90
1179;DHT22;578;48.408;10.004;2024-03-08T01:55:13;0.70;99.90
1179;DHT22;578;48.408;10.004;2024-03-08T01:57:17;0.70;99.90
1179;DHT22;578;48.408;10.004;2024-03-08T01:59:19;0.60;99.90
1179;DHT22;578;48.408;10.004;2024-03-08T02:01:21;0.60;99.90
1179;DHT22;578;48.408;10.004;2024-03-08T02:03:24;0.70;99.90
1179;DHT22;578;48.408;10.004;2024-03-08T02:05:25;0.70;99.90
1179;DHT22;578;48.408;10.004;2024-03-08T02:07:27;0.60;99.90
1179;DHT22;578;48.408;10.004;2024-03-08T02:09:29;0.50;99.90
1179;DHT22;578;48.408;10.004;2024-03-08T02:11:30;0.50;99.90
1179;DHT22;578;48.408;10.004;2024-03-08T02:13:32;0.50;99.90
1179;DHT22;578;48.408;10.004;2024-03-08T02:15:51;0.50;99.90
1179;DHT22;578;48.408;10.004;2024-03-08T02:17:53;0.50;99.90
1179;DHT22;578;48.408;10.004;2024-03-08T02:19:56;0.50;99.90
1179;DHT22;578;48.408;10.004;2024-03-08T02:21:59;0.40;99.90
1179;DHT22;578;48.408;10.004;2024-03-08T02:24:05;0.40;99.90
1179;DHT22;578;48.408;10.004;2024-03-08T02:26:07;0.30;99.90
1179;DHT22;578;48.408;10.004;2024-03-08T02:28:09;0.30;99.90
1179;DHT22;578;48.408;10.004;2024-03-08T02:30:12;0.40;99.90
1179;DHT22;578;48.408;10.004;2024-03-08T02:32:14;0.30;99.90
1179;DHT22;578;48.408;10.004;2024-03-08T02:34:15;0.30;99.90
1179;DHT22;578;48.408;10.004;2024-03-08T02:36:16;0.30;99.90
1179;DHT22;578;48.408;10.004;2024-03-08T02:38:21;0.40;99.90
1179;DHT22;578;48.408;10.004;2024-03-08T02:40:24;0.40;99.90
1179;DHT22;578;48.408;10.004;2024-03-08T02:42:26;0.30;99.90
1179;DHT22;578;48.408;10.004;2024-03-08T02:44:28;0.30;99.90
1179;DHT22;578;48.408;10.004;2024-03-08T02:46:30;0.30;99.90
1179;DHT22;578;48.408;10.004;2024-03-08T02:48:31;0.30;99.90
1179;DHT22;578;48.408;10.004;2024-03-08T02:50:33;0.30;99.90
1179;DHT22;578;48.408;10.004;2024-03-08T02:52:35;0.30;99.90
1179;DHT22;578;48.408;10.004;2024-03-08T02:54:38;0.30;99.90
1179;DHT22;578;48.408;10.004;2024-03-08T02:56:40;0.20;99.90
1179;DHT22;578;48.408;10.004;2024-03-08T02:58:42;0.20;99.90
1179;DHT22;578;48.408;10.004;2024-03-08T03:00:44;0.30;99.90
1179;DHT22;578;48.408;10.004;2024-03-08T03:02:45;0.20;99.90
1179;DHT22;578;48.408;10.004;2024-03-08T03:04:46;0.20;99.90
1179;DHT22;578;48.408;10.004;2024-03-08T03:06:49;0.20;99.90
1179;DHT22;578;48.408;10.004;2024-03-08T03:08:50;0.20;99.90
1179;DHT22;578;48.408;10.004;2024-03-08T03:10:54;0.20;99.90
1179;DHT22;578;48.408;10.004;2024-03-08T03:12:57;0.30;99.90
1179;DHT22;578;48.408;10.004;2024-03-08T03:14:58;0.30;99.90
1179;DHT22;578;48.408;10.004;2024-03-08T03:16:59;0.30;99.90
1179;DHT22;578;48.408;10.004;2024-03-08T03:19:03;0.20;99.90
1179;DHT22;578;48.408;10.004;2024-03-08T03:21:05;0.30;99.90
1179;DHT22;578;48.408;10.004;2024-03-08T03:23:08;0.30;99.90
1179;DHT22;578;48.408;10.004;2024-03-08T03:25:09;0.30;99.90
1179;DHT22;578;48.408;10.004;2024-03-08T03:27:13;0.20;99.90
1179;DHT22;578;48.408;10.004;2024-03-08T03:29:15;0.20;99.90
1179;DHT22;578;48.408;10.004;2024-03-08T03:31:17;0.20;99.90
1179;DHT22;578;48.408;10.004;2024-03-08T03:33:19;0.20;99.90
1179;DHT22;578;48.408;10.004;2024-03-08T03:35:21;0.20;99.90
1179;DHT22;578;48.408;10.004;2024-03-08T03:37:23;0.20;99.90
1179;DHT22;578;48.408;10.004;2024-03-08T03:39:25;0.30;99.90
1179;DHT22;578;48.408;10.004;2024-03-08T03:41:30;0.20;99.90
1179;DHT22;578;48.408;10.004;2024-03-08T03:43:33;0.20;99.90
1179;DHT22;578;48.408;10.004;2024-03-08T03:45:35;0.30;99.90
1179;DHT22;578;48.408;10.004;2024-03-08T03:47:37;0.30;99.90
1179;DHT22;578;48.408;10.004;2024-03-08T03:49:38;0.40;99.90
1179;DHT22;578;48.408;10.004;2024-03-08T03:51:41;0.40;99.90
1179;DHT22;578;48.408;10.004;2024-03-08T03:53:42;0.40;99.90
1179;DHT22;578;48.408;10.004;2024-03-08T03:55:44;0.40;99.90
1179;DHT22;578;48.408;10.004;2024-03-08T03:57:47;0.50;99.90
1179;DHT22;578;48.408;10.004;2024-03-08T03:59:50;0.50;99.90
1179;DHT22;578;48.408;10.004;2024-03-08T04:01:52;0.60;99.90
1179;DHT22;578;48.408;10.004;2024-03-08T04:03:54;0.60;99.90
1179;DHT22;578;48.408;10.004;2024-03-08T04:05:56;0.60;99.90
1179;DHT22;578;48.408;10.004;2024-03-08T04:07:58;0.60;99.90
1179;DHT22;578;48.408;10.004;2024-03-08T04:10:00;0.60;99.90
1179;DHT22;578;48.408;10.004;2024-03-08T04:12:01;0.70;99.90
1179;DHT22;578;48.408;10.004;2024-03-08T04:14:02;0.60;99.90
1179;DHT22;578;48.408;10.004;2024-03-08T04:16:07;0.60;99.90
1179;DHT22;578;48.408;10.004;2024-03-08T04:18:09;0.70;99.90
1179;DHT22;578;48.408;10.004;2024-03-08T04:20:10;0.60;99.90
1179;DHT22;578;48.408;10.004;2024-03-08T04:22:15;0.70;99.90
1179;DHT22;578;48.408;10.004;2024-03-08T04:24:17;0.60;99.90
1179;DHT22;578;48.408;10.004;2024-03-08T04:26:19;0.60;99.90
1179;DHT22;578;48.408;10.004;2024-03-08T04:28:19;0.70;99.90
1179;DHT22;578;48.408;10.004;2024-03-08T04:30:21;0.60;99.90
1179;DHT22;578;48.408;10.004;2024-03-08T04:32:24;0.70;99.90
1179;DHT22;578;48.408;10.004;2024-03-08T04:34:26;0.70;99.90
1179;DHT22;578;48.408;10.004;2024-03-08T04:36:29;0.60;99.90
1179;DHT22;578;48.408;10.004;2024-03-08T04:38:31;0.70;99.90
1179;DHT22;578;48.408;10.004;2024-03-08T04:40:32;0.70;99.90
1179;DHT22;578;48.408;10.004;2024-03-08T04:42:35;0.70;99.90
1179;DHT22;578;48.408;10.004;2024-03-08T04:44:38;0.70;99.90
1179;DHT22;578;48.408;10.004;2024-03-08T04:46:40;0.70;99.90
1179;DHT22;578;48.408;10.004;2024-03-08T04:48:43;0.70;99.90
1179;DHT22;578;48.408;10.004;2024-03-08T04:50:45;0.70;99.90
1179;DHT22;578;48.408;10.004;2024-03-08T04:52:47;0.70;99.90
1179;DHT22;578;48.408;10.004;2024-03-08T04:54:48;0.70;99.90
1179;DHT22;578;48.408;10.004;2024-03-08T04:56:50;0.70;99.90
1179;DHT22;578;48.408;10.004;2024-03-08T04:58:51;0.70;99.90
1179;DHT22;578;48.408;10.004;2024-03-08T05:00:53;0.70;99.90
1179;DHT22;578;48.408;10.004;2024-03-08T05:02:56;0.80;99.90
1179;DHT22;578;48.408;10.004;2024-03-08T05:05:00;0.80;99.90
1179;DHT22;578;48.408;10.004;2024-03-08T05:07:02;0.80;99.90
1179;DHT22;578;48.408;10.004;2024-03-08T05:09:04;0.90;99.90
1179;DHT22;578;48.408;10.004;2024-03-08T05:11:14;0.80;99.90
1179;DHT22;578;48.408;10.004;2024-03-08T05:13:15;0.80;99.90
1179;DHT22;578;48.408;10.004;2024-03-08T05:15:19;0.80;99.90
1179;DHT22;578;48.408;10.004;2024-03-08T05:17:22;0.80;99.90
1179;DHT22;578;48.408;10.004;2024-03-08T05:19:24;0.90;99.90
1179;DHT22;578;48.408;10.004;2024-03-08T05:21:27;0.80;99.90
1179;DHT22;578;48.408;10.004;2024-03-08T05:23:29;0.80;99.90
1179;DHT22;578;48.408;10.004;2024-03-08T05:25:31;0.90;99.90
1179;DHT22;578;48.408;10.004;2024-03-08T05:27:33;0.80;99.90
1179;DHT22;578;48.408;10.004;2024-03-08T05:29:34;0.80;99.90
1179;DHT22;578;48.408;10.004;2024-03-08T05:31:42;0.80;99.90
1179;DHT22;578;48.408;10.004;2024-03-08T05:33:45;0.80;99.90
1179;DHT22;578;48.408;10.004;2024-03-08T05:35:47;0.80;99.90
1179;DHT22;578;48.408;10.004;2024-03-08T05:37:50;0.80;99.90
1179;DHT22;578;48.408;10.004;2024-03-08T05:39:52;0.90;99.90
1179;DHT22;578;48.408;10.004;2024-03-08T05:41:53;0.90;99.90
1179;DHT22;578;48.408;10.004;2024-03-08T05:43:55;0.80;99.90
1179;DHT22;578;48.408;10.004;2024-03-08T05:45:57;0.90;99.90
1179;DHT22;578;48.408;10.004;2024-03-08T05:47:59;0.90;99.90
1179;DHT22;578;48.408;10.004;2024-03-08T05:50:02;0.90;99.90
1179;DHT22;578;48.408;10.004;2024-03-08T05:52:04;0.90;99.90
1179;DHT22;578;48.408;10.004;2024-03-08T05:54:09;1.00;99.90
1179;DHT22;578;48.408;10.004;2024-03-08T05:56:11;0.90;99.90
1179;DHT22;578;48.408;10.004;2024-03-08T05:58:12;0.90;99.90
1179;DHT22;578;48.408;10.004;2024-03-08T06:00:14;0.90;99.90
1179;DHT22;578;48.408;10.004;2024-03-08T06:02:17;0.90;99.90
1179;DHT22;578;48.408;10.004;2024-03-08T06:04:19;1.00;99.90
1179;DHT22;578;48.408;10.004;2024-03-08T06:06:21;0.90;99.90
1179;DHT22;578;48.408;10.004;2024-03-08T06:08:23;1.00;99.90
1179;DHT22;578;48.408;10.004;2024-03-08T06:10:31;1.00;99.90
1179;DHT22;578;48.408;10.004;2024-03-08T06:12:33;1.00;99.90
1179;DHT22;578;48.408;10.004;2024-03-08T06:14:40;1.00;99.90
1179;DHT22;578;48.408;10.004;2024-03-08T06:16:42;1.10;99.90
1179;DHT22;578;48.408;10.004;2024-03-08T06:18:44;1.10;99.90
1179;DHT22;578;48.408;10.004;2024-03-08T06:20:47;1.10;99.90
1179;DHT22;578;48.408;10.004;2024-03-08T06:22:49;1.10;99.90
1179;DHT22;578;48.408;10.004;2024-03-08T06:24:50;1.20;99.90
1179;DHT22;578;48.408;10.004;2024-03-08T06:26:53;1.10;99.90
1179;DHT22;578;48.408;10.004;2024-03-08T06:28:55;1.20;99.90
1179;DHT22;578;48.408;10.004;2024-03-08T06:30:57;1.10;99.90
1179;DHT22;578;48.408;10.004;2024-03-08T06:32:58;1.20;99.90
1179;DHT22;578;48.408;10.004;2024-03-08T06:35:00;1.20;99.90
1179;DHT22;578;48.408;10.004;2024-03-08T06:37:01;1.10;99.90
1179;DHT22;578;48.408;10.004;2024-03-08T06:39:03;1.20;99.90
1179;DHT22;578;48.408;10.004;2024-03-08T06:41:09;1.20;99.90
1179;DHT22;578;48.408;10.004;2024-03-08T06:43:17;1.20;99.90
1179;DHT22;578;48.408;10.004;2024-03-08T06:45:19;1.20;99.90
1179;DHT22;578;48.408;10.004;2024-03-08T06:47:21;1.20;99.90
1179;DHT22;578;48.408;10.004;2024-03-08T06:49:26;1.20;99.90
1179;DHT22;578;48.408;10.004;2024-03-08T06:51:28;1.20;99.90
1179;DHT22;578;48.408;10.004;2024-03-08T06:53:29;1.20;99.90
1179;DHT22;578;48.408;10.004;2024-03-08T06:55:30;1.20;99.90
1179;DHT22;578;48.408;10.004;2024-03-08T06:57:33;1.20;99.90
1179;DHT22;578;48.408;10.004;2024-03-08T06:59:36;1.30;99.90
1179;DHT22;578;48.408;10.004;2024-03-08T07:01:37;1.20;99.90
1179;DHT22;578;48.408;10.004;2024-03-08T07:03:39;1.30;99.90
1179;DHT22;578;48.408;10.004;2024-03-08T07:05:44;1.30;99.90
1179;DHT22;578;48.408;10.004;2024-03-08T07:07:46;1.30;99.90
1179;DHT22;578;48.408;10.004;2024-03-08T07:09:49;1.30;99.90
1179;DHT22;578;48.408;10.004;2024-03-08T07:11:51;1.40;99.90
1179;DHT22;578;48.408;10.004;2024-03-08T07:13:55;1.40;99.90
1179;DHT22;578;48.408;10.004;2024-03-08T07:15:59;1.40;99.90
1179;DHT22;578;48.408;10.004;2024-03-08T07:18:01;1.30;99.90
1179;DHT22;578;48.408;10.004;2024-03-08T07:20:03;1.40;99.90
1179;DHT22;578;48.408;10.004;2024-03-08T07:22:08;1.30;99.90
1179;DHT22;578;48.408;10.004;2024-03-08T07:24:10;1.30;99.90
1179;DHT22;578;48.408;10.004;2024-03-08T07:26:28;1.30;99.90
1179;DHT22;578;48.408;10.004;2024-03-08T07:28:30;1.40;99.90
1179;DHT22;578;48.408;10.004;2024-03-08T07:30:32;1.40;99.90
1179;DHT22;578;48.408;10.004;2024-03-08T07:32:53;1.40;99.90
1179;DHT22;578;48.408;10.004;2024-03-08T07:34:55;1.40;99.90
1179;DHT22;578;48.408;10.004;2024-03-08T07:36:56;1.40;99.90
1179;DHT22;578;48.408;10.004;2024-03-08T07:38:58;1.40;99.90
1179;DHT22;578;48.408;10.004;2024-03-08T07:41:00;1.40;99.90
1179;DHT22;578;48.408;10.004;2024-03-08T07:43:01;1.40;99.90
1179;DHT22;578;48.408;10.004;2024-03-08T07:45:04;1.50;99.90
1179;DHT22;578;48.408;10.004;2024-03-08T07:47:08;1.50;99.90
1179;DHT22;578;48.408;10.004;2024-03-08T07:49:11;1.60;99.90
1179;DHT22;578;48.408;10.004;2024-03-08T07:51:12;1.60;99.90
1179;DHT22;578;48.408;10.004;2024-03-08T07:53:18;1.60;99.90
1179;DHT22;578;48.408;10.004;2024-03-08T07:55:20;1.60;99.90
1179;DHT22;578;48.408;10.004;2024-03-08T07:57:24;1.60;99.90
1179;DHT22;578;48.408;10.004;2024-03-08T07:59:27;1.70;99.90
1179;DHT22;578;48.408;10.004;2024-03-08T08:01:29;1.70;99.90
1179;DHT22;578;48.408;10.004;2024-03-08T08:03:30;1.70;99.90
1179;DHT22;578;48.408;10.004;2024-03-08T08:05:34;1.80;99.90
1179;DHT22;578;48.408;10.004;2024-03-08T08:07:36;1.70;99.90
1179;DHT22;578;48.408;10.004;2024-03-08T08:09:38;1.80;99.90
1179;DHT22;578;48.408;10.004;2024-03-08T08:11:40;1.80;99.90
1179;DHT22;578;48.408;10.004;2024-03-08T08:13:43;1.70;99.90
1179;DHT22;578;48.408;10.004;2024-03-08T08:15:45;1.70;99.90
1179;DHT22;578;48.408;10.004;2024-03-08T08:17:47;1.70;99.90
1179;DHT22;578;48.408;10.004;2024-03-08T08:19:49;1.70;99.90
1179;DHT22;578;48.408;10.004;2024-03-08T08:21:52;1.60;99.90
1179;DHT22;578;48.408;10.004;2024-03-08T08:23:54;1.60;99.90
1179;DHT22;578;48.408;10.004;2024-03-08T08:25:56;1.70;99.90
1179;DHT22;578;48.408;10.004;2024-03-08T08:27:57;1.70;99.90
1179;DHT22;578;48.408;10.004;2024-03-08T08:29:59;1.70;99.90
1179;DHT22;578;48.408;10.004;2024-03-08T08:32:00;1.70;99.90
1179;DHT22;578;48.408;10.004;2024-03-08T08:34:03;1.80;99.90
1179;DHT22;578;48.408;10.004;2024-03-08T08:36:06;1.80;99.90
1179;DHT22;578;48.408;10.004;2024-03-08T08:38:09;1.90;99.90
1179;DHT22;578;48.408;10.004;2024-03-08T08:40:12;1.90;99.90
1179;DHT22;578;48.408;10.004;2024-03-08T08:42:18;1.80;99.90
1179;DHT22;578;48.408;10.004;2024-03-08T08:44:19;1.80;99.90
1179;DHT22;578;48.408;10.004;2024-03-08T08:46:21;1.90;99.90
1179;DHT22;578;48.408;10.004;2024-03-08T08:48:23;1.90;99.90
1179;DHT22;578;48.408;10.004;2024-03-08T08:50:25;2.00;99.90
1179;DHT22;578;48.408;10.004;2024-03-08T08:52:28;2.10;99.90
1179;DHT22;578;48.408;10.004;2024-03-08T08:54:32;2.00;99.90
1179;DHT22;578;48.408;10.004;2024-03-08T08:56:33;2.10;99.90
1179;DHT22;578;48.408;10.004;2024-03-08T08:58:35;2.20;99.90
1179;DHT22;578;48.408;10.004;2024-03-08T09:00:38;2.10;99.90
1179;DHT22;578;48.408;10.004;2024-03-08T09:02:39;2.10;99.90
1179;DHT22;578;48.408;10.004;2024-03-08T09:04:41;2.20;99.90
1179;DHT22;578;48.408;10.004;2024-03-08T09:06:43;2.20;99.90
1179;DHT22;578;48.408;10.004;2024-03-08T09:08:45;2.20;99.90
1179;DHT22;578;48.408;10.004;2024-03-08T09:10:48;2.20;99.90
1179;DHT22;578;48.408;10.004;2024-03-08T09:12:50;2.20;99.90
1179;DHT22;578;48.408;10.004;2024-03-08T09:14:53;2.10;99.90
1179;DHT22;578;48.408;10.004;2024-03-08T09:16:55;2.10;99.90
1179;DHT22;578;48.408;10.004;2024-03-08T09:18:57;2.30;99.90
1179;DHT22;578;48.408;10.004;2024-03-08T09:20:59;2.20;99.90
1179;DHT22;578;48.408;10.004;2024-03-08T09:23:01;2.20;99.90
1179;DHT22;578;48.408;10.004;2024-03-08T09:25:03;2.30;99.90
1179;DHT22;578;48.408;10.004;2024-03-08T09:27:07;2.40;99.90
1179;DHT22;578;48.408;10.004;2024-03-08T09:29:10;2.40;99.90
1179;DHT22;578;48.408;10.004;2024-03-08T09:31:12;2.40;99.90
1179;DHT22;578;48.408;10.004;2024-03-08T09:33:13;2.40;99.90
1179;DHT22;578;48.408;10.004;2024-03-08T09:35:20;2.40;99.90
1179;DHT22;578;48.408;10.004;2024-03-08T09:37:21;2.30;99.90
1179;DHT22;578;48.408;10.004;2024-03-08T09:39:23;2.30;99.90
1179;DHT22;578;48.408;10.004;2024-03-08T09:41:25;2.30;99.90
1179;DHT22;578;48.408;10.004;2024-03-08T09:43:29;2.40;99.90
1179;DHT22;578;48.408;10.004;2024-03-08T09:45:32;2.50;99.90
1179;DHT22;578;48.408;10.004;2024-03-08T09:47:38;2.60;99.90
1179;DHT22;578;48.408;10.004;2024-03-08T09:49:40;2.60;99.90
1179;DHT22;578;48.408;10.004;2024-03-08T09:51:44;2.60;99.90
1179;DHT22;578;48.408;10.004;2024-03-08T09:53:46;2.60;99.90
1179;DHT22;578;48.408;10.004;2024-03-08T09:55:47;2.50;99.90
1179;DHT22;578;48.408;10.004;2024-03-08T09:57:51;2.60;99.90
1179;DHT22;578;48.408;10.004;2024-03-08T10:00:13;2.70;99.90
1179;DHT22;578;48.408;10.004;2024-03-08T10:02:24;2.70;99.90
1179;DHT22;578;48.408;10.004;2024-03-08T10:04:26;2.90;99.90
1179;DHT22;578;48.408;10.004;2024-03-08T10:06:31;2.90;99.90
1179;DHT22;578;48.408;10.004;2024-03-08T10:08:33;3.10;99.90
1179;DHT22;578;48.408;10.004;2024-03-08T10:10:34;3.20;99.90
1179;DHT22;578;48.408;10.004;2024-03-08T10:12:36;3.20;99.90
1179;DHT22;578;48.408;10.004;2024-03-08T10:14:41;3.40;99.90
1179;DHT22;578;48.408;10.004;2024-03-08T10:16:45;3.30;99.90
1179;DHT22;578;48.408;10.004;2024-03-08T10:18:47;3.30;99.90
1179;DHT22;578;48.408;10.004;2024-03-08T10:21:02;3.30;99.90
1179;DHT22;578;48.408;10.004;2024-03-08T10:23:05;3.20;99.90
1179;DHT22;578;48.408;10.004;2024-03-08T10:25:10;3.20;99.90
1179;DHT22;578;48.408;10.004;2024-03-08T10:27:12;3.30;99.90
1179;DHT22;578;48.408;10.004;2024-03-08T10:29:13;3.30;99.90
1179;DHT22;578;48.408;10.004;2024-03-08T10:31:16;3.20;99.90
1179;DHT22;578;48.408;10.004;2024-03-08T10:33:19;3.20;99.90
1179;DHT22;578;48.408;10.004;2024-03-08T10:35:21;3.20;99.90
1179;DHT22;578;48.408;10.004;2024-03-08T10:37:24;3.20;99.90
1179;DHT22;578;48.408;10.004;2024-03-08T10:39:34;3.20;99.90
1179;DHT22;578;48.408;10.004;2024-03-08T10:41:37;3.30;99.90
1179;DHT22;578;48.408;10.004;2024-03-08T10:43:52;3.40;99.90
1179;DHT22;578;48.408;10.004;2024-03-08T10:46:06;3.70;99.90
1179;DHT22;578;48.408;10.004;2024-03-08T10:48:24;3.80;99.90
1179;DHT22;578;48.408;10.004;2024-03-08T10:50:29;3.80;99.90
1179;DHT22;578;48.408;10.004;2024-03-08T10:52:31;3.80;99.90
1179;DHT22;578;48.408;10.004;2024-03-08T10:54:37;3.90;99.90
1179;DHT22;578;48.408;10.004;2024-03-08T10:56:39;3.80;99.90
1179;DHT22;578;48.408;10.004;2024-03-08T10:58:42;4.00;99.90
1179;DHT22;578;48.408;10.004;2024-03-08T11:00:45;4.10;99.90
1179;DHT22;578;48.408;10.004;2024-03-08T11:02:50;4.00;99.90
1179;DHT22;578;48.408;10.004;2024-03-08T11:04:53;4.00;99.90
1179;DHT22;578;48.408;10.004;2024-03-08T11:07:00;4.00;99.90
1179;DHT22;578;48.408;10.004;2024-03-08T11:09:10;4.00;99.90
1179;DHT22;578;48.408;10.004;2024-03-08T11:11:25;3.90;99.90
1179;DHT22;578;48.408;10.004;2024-03-08T11:13:33;4.00;99.90
1179;DHT22;578;48.408;10.004;2024-03-08T11:15:39;4.00;99.90
1179;DHT22;578;48.408;10.004;2024-03-08T11:17:45;4.00;99.90
1179;DHT22;578;48.408;10.004;2024-03-08T11:19:48;4.20;99.90
1179;DHT22;578;48.408;10.004;2024-03-08T11:22:00;4.50;99.90
1179;DHT22;578;48.408;10.004;2024-03-08T11:24:07;4.50;99.90
1179;DHT22;578;48.408;10.004;2024-03-08T11:26:18;4.80;99.90
1179;DHT22;578;48.408;10.004;2024-03-08T11:28:23;5.00;99.90
1179;DHT22;578;48.408;10.004;2024-03-08T11:30:25;5.20;99.90
1179;DHT22;578;48.408;10.004;2024-03-08T11:32:29;4.90;99.90
1179;DHT22;578;48.408;10.004;2024-03-08T11:34:31;4.90;99.90
1179;DHT22;578;48.408;10.004;2024-03-08T11:36:34;4.90;99.90
1179;DHT22;578;48.408;10.004;2024-03-08T11:38:41;4.80;99.90
1179;DHT22;578;48.408;10.004;2024-03-08T11:40:46;5.10;99.90
1179;DHT22;578;48.408;10.004;2024-03-08T11:42:50;4.90;99.90
1179;DHT22;578;48.408;10.004;2024-03-08T11:44:52;5.10;99.90
1179;DHT22;578;48.408;10.004;2024-03-08T11:46:53;5.10;99.90
1179;DHT22;578;48.408;10.004;2024-03-08T11:48:55;5.00;99.90
1179;DHT22;578;48.408;10.004;2024-03-08T11:50:59;5.00;99.90
1179;DHT22;578;48.408;10.004;2024-03-08T11:53:03;5.00;99.90
1179;DHT22;578;48.408;10.004;2024-03-08T11:55:07;4.90;99.90
1179;DHT22;578;48.408;10.004;2024-03-08T11:57:09;5.10;99.90
1179;DHT22;578;48.408;10.004;2024-03-08T11:59:11;5.40;99.90
1179;DHT22;578;48.408;10.004;2024-03-08T12:01:13;5.60;99.90
1179;DHT22;578;48.408;10.004;2024-03-08T12:03:15;5.90;99.90
1179;DHT22;578;48.408;10.004;2024-03-08T12:05:19;5.80;99.90
1179;DHT22;578;48.408;10.004;2024-03-08T12:07:20;6.00;99.90
1179;DHT22;578;48.408;10.004;2024-03-08T12:09:22;6.10;99.90
1179;DHT22;578;48.408;10.004;2024-03-08T12:11:24;6.00;99.90
1179;DHT22;578;48.408;10.004;2024-03-08T12:13:26;6.10;99.90
1179;DHT22;578;48.408;10.004;2024-03-08T12:15:29;6.30;99.90
1179;DHT22;578;48.408;10.004;2024-03-08T12:17:33;6.50;99.90
1179;DHT22;578;48.408;10.004;2024-03-08T12:19:35;6.70;99.90
1179;DHT22;578;48.408;10.004;2024-03-08T12:21:38;6.80;99.90
1179;DHT22;578;48.408;10.004;2024-03-08T12:24:02;7.10;99.90
1179;DHT22;578;48.408;10.004;2024-03-08T12:26:11;7.30;99.90
1179;DHT22;578;48.408;10.004;2024-03-08T12:28:15;6.90;98.90
1179;DHT22;578;48.408;10.004;2024-03-08T12:30:21;6.50;99.90
1179;DHT22;578;48.408;10.004;2024-03-08T12:32:23;6.40;99.90
1179;DHT22;578;48.408;10.004;2024-03-08T12:34:24;6.20;99.90
1179;DHT22;578;48.408;10.004;2024-03-08T12:36:27;5.90;99.90
1179;DHT22;578;48.408;10.004;2024-03-08T12:38:29;5.90;99.90
1179;DHT22;578;48.408;10.004;2024-03-08T12:40:32;5.80;99.90
1179;DHT22;578;48.408;10.004;2024-03-08T12:42:35;5.90;99.90
1179;DHT22;578;48.408;10.004;2024-03-08T12:44:38;5.90;99.90
1179;DHT22;578;48.408;10.004;2024-03-08T12:46:44;5.90;99.90
1179;DHT22;578;48.408;10.004;2024-03-08T12:48:46;6.10;99.90
1179;DHT22;578;48.408;10.004;2024-03-08T12:50:48;6.10;99.90
1179;DHT22;578;48.408;10.004;2024-03-08T12:52:52;6.10;99.90
1179;DHT22;578;48.408;10.004;2024-03-08T12:54:54;6.40;99.90
1179;DHT22;578;48.408;10.004;2024-03-08T12:56:56;6.40;99.90
1179;DHT22;578;48.408;10.004;2024-03-08T12:58:59;6.60;99.90
1179;DHT22;578;48.408;10.004;2024-03-08T13:01:02;6.70;99.90
1179;DHT22;578;48.408;10.004;2024-03-08T13:03:05;6.90;99.90
1179;DHT22;578;48.408;10.004;2024-03-08T13:05:07;6.90;99.90
1179;DHT22;578;48.408;10.004;2024-03-08T13:07:10;7.00;99.90
1179;DHT22;578;48.408;10.004;2024-03-08T13:09:12;7.00;99.30
1179;DHT22;578;48.408;10.004;2024-03-08T13:11:14;7.10;99.90
1179;DHT22;578;48.408;10.004;2024-03-08T13:13:16;7.20;99.90
1179;DHT22;578;48.408;10.004;2024-03-08T13:15:18;7.10;99.90
1179;DHT22;578;48.408;10.004;2024-03-08T13:17:22;7.10;99.90
1179;DHT22;578;48.408;10.004;2024-03-08T13:19:23;7.10;99.90
1179;DHT22;578;48.408;10.004;2024-03-08T13:21:28;7.20;99.90
1179;DHT22;578;48.408;10.004;2024-03-08T13:23:30;7.20;99.90
1179;DHT22;578;48.408;10.004;2024-03-08T13:25:32;7.30;99.90
1179;DHT22;578;48.408;10.004;2024-03-08T13:27:34;7.20;97.00
1179;DHT22;578;48.408;10.004;2024-03-08T13:29:37;7.40;98.80
1179;DHT22;578;48.408;10.004;2024-03-08T13:31:39;7.50;94.70
1179;DHT22;578;48.408;10.004;2024-03-08T13:33:42;7.60;93.70
1179;DHT22;578;48.408;10.004;2024-03-08T13:35:42;7.60;92.70